createdAt,value
2022-08-12T00:02:26.107Z,4.13
2022-08-12T00:07:48.927Z,4.80
2022-08-12T00:13:12.709Z,4.30
2022-08-12T00:18:34.635Z,3.08
2022-08-12T00:23:56.186Z,4.07
2022-08-12T00:29:18.996Z,4.27
2022-08-12T00:34:40.747Z,4.10
2022-08-12T00:40:04.609Z,4.10
2022-08-12T00:45:13.968Z,4.73
2022-08-12T00:50:19.958Z,4.07
2022-08-12T00:55:23.267Z,3.97
2022-08-12T01:00:27.407Z,3.70
2022-08-12T01:05:51.668Z,3.53
2022-08-12T01:11:15.787Z,4.03
2022-08-12T01:16:23.787Z,4.50
2022-08-12T01:22:06.746Z,4.10
2022-08-12T01:27:11.987Z,4.70
2022-08-12T01:32:16.747Z,4.40
2022-08-12T01:37:22.846Z,4.50
2022-08-12T01:42:28.087Z,5.00
2022-08-12T01:47:50.555Z,3.97
2022-08-12T01:53:15.295Z,4.47
2022-08-12T01:58:58.238Z,4.07
2022-08-12T02:04:35.027Z,4.50
2022-08-12T02:10:50.110Z,3.57
2022-08-12T02:15:56.868Z,3.97
2022-08-12T02:21:11.322Z,4.43
2022-08-12T02:26:17.086Z,4.50
2022-08-12T02:31:21.266Z,4.63
2022-08-12T02:36:25.506Z,4.53
2022-08-12T02:41:33.034Z,4.23
2022-08-12T02:46:38.317Z,4.27
2022-08-12T02:51:47.242Z,4.23
2022-08-12T02:56:51.128Z,4.20
2022-08-12T03:02:03.750Z,3.77
2022-08-12T03:07:11.365Z,3.87
2022-08-12T03:12:18.198Z,4.40
2022-08-12T03:18:25.601Z,4.43
2022-08-12T03:23:19.374Z,4.87
2022-08-12T03:28:51.359Z,4.17
2022-08-12T03:34:02.847Z,5.17
2022-08-12T03:39:18.409Z,3.80
2022-08-12T03:45:14.725Z,3.93
2022-08-12T03:50:37.827Z,4.03
2022-08-12T03:55:59.934Z,3.93
2022-08-12T04:01:03.317Z,4.00
2022-08-12T04:06:09.786Z,4.10
2022-08-12T04:11:32.239Z,4.90
2022-08-12T04:16:36.669Z,4.13
2022-08-12T04:21:42.239Z,4.03
2022-08-12T04:27:07.668Z,4.10
2022-08-12T04:32:11.626Z,4.13
2022-08-12T04:37:16.656Z,4.07
2022-08-12T04:42:20.928Z,4.47
2022-08-12T04:47:24.666Z,5.63
2022-08-12T04:52:30.675Z,4.47
2022-08-12T04:57:36.771Z,4.63
2022-08-12T05:02:40.369Z,5.70
2022-08-12T05:07:45.752Z,4.93
2022-08-12T05:13:00.306Z,4.27
2022-08-12T05:18:19.553Z,4.47
2022-08-12T05:23:24.006Z,3.67
2022-08-12T05:28:28.350Z,4.20
2022-08-12T05:33:40.626Z,3.53
2022-08-12T05:38:57.488Z,3.63
2022-08-12T05:44:05.838Z,3.60
2022-08-12T05:49:09.886Z,3.93
2022-08-12T05:54:13.410Z,4.05
2022-08-12T05:59:17.566Z,4.03
2022-08-12T06:04:21.274Z,2.92
2022-08-12T06:09:27.028Z,3.20
2022-08-12T06:14:30.288Z,3.05
2022-08-12T06:20:22.753Z,3.22
2022-08-12T06:24:56.857Z,2.45
2022-08-12T06:30:08.453Z,2.92
2022-08-12T06:35:22.946Z,2.47
2022-08-12T06:40:46.526Z,3.50
2022-08-12T06:45:50.007Z,2.22
2022-08-12T06:50:54.108Z,2.30
2022-08-12T06:55:58.702Z,5.82
2022-08-12T07:01:01.879Z,2.80
2022-08-12T07:06:07.682Z,2.40
2022-08-12T07:11:15.336Z,2.20
2022-08-12T07:16:20.247Z,2.08
2022-08-12T07:21:23.707Z,2.38
2022-08-12T07:33:05.907Z,2.00
2022-08-12T07:38:29.058Z,2.10
2022-08-12T07:43:35.888Z,1.77
2022-08-12T07:48:45.707Z,2.33
2022-08-12T07:54:00.001Z,2.03
2022-08-12T07:59:05.561Z,1.38
2022-08-12T08:04:26.717Z,1.60
2022-08-12T08:09:29.744Z,1.30
2022-08-12T08:14:33.257Z,1.48
2022-08-12T08:20:02.307Z,1.85
2022-08-12T08:25:03.430Z,1.58
2022-08-12T08:30:24.666Z,1.35
2022-08-12T08:35:38.806Z,1.50
2022-08-12T08:41:07.868Z,1.92
2022-08-12T08:46:11.090Z,1.77
2022-08-12T08:51:14.250Z,1.38
2022-08-12T08:56:18.766Z,1.48
2022-08-12T09:01:22.839Z,1.63
2022-08-12T09:06:37.336Z,1.88
2022-08-12T09:12:10.882Z,1.33
2022-08-12T09:17:21.395Z,2.45
2022-08-12T09:22:29.274Z,1.92
2022-08-12T09:28:03.841Z,2.35
2022-08-12T09:33:08.627Z,1.70
2022-08-12T09:38:28.230Z,1.90
2022-08-12T09:43:53.779Z,2.05
2022-08-12T09:49:13.442Z,2.03
2022-08-12T09:54:33.209Z,1.75
2022-08-12T10:00:16.792Z,2.22
2022-08-12T10:05:18.005Z,1.58
2022-08-12T10:10:30.189Z,1.67
2022-08-12T10:16:00.586Z,2.22
2022-08-12T10:21:00.015Z,2.22
2022-08-12T10:26:37.254Z,2.10
2022-08-12T10:32:21.092Z,1.80
2022-08-12T10:38:33.693Z,2.13
2022-08-12T10:43:05.006Z,1.92
2022-08-12T10:48:21.681Z,1.80
2022-08-12T10:53:45.457Z,2.25
2022-08-12T10:58:50.007Z,2.00
2022-08-12T11:04:23.369Z,1.98
2022-08-12T11:09:41.892Z,2.03
2022-08-12T11:14:51.486Z,2.10
2022-08-12T11:19:55.127Z,2.15
2022-08-12T11:24:58.148Z,2.08
2022-08-12T11:30:06.127Z,2.00
2022-08-12T11:35:11.679Z,1.92
2022-08-12T11:40:15.619Z,2.25
2022-08-12T11:45:20.300Z,2.22
2022-08-12T11:50:32.100Z,2.22
2022-08-12T11:55:36.092Z,2.42
2022-08-12T12:06:16.199Z,2.25
2022-08-12T12:11:21.610Z,2.10
2022-08-12T12:16:25.031Z,2.45
2022-08-12T12:21:46.913Z,2.35
2022-08-12T12:27:00.331Z,2.35
2022-08-12T12:32:11.219Z,2.60
2022-08-12T12:37:16.242Z,2.50
2022-08-12T12:42:55.871Z,2.30
2022-08-12T12:48:10.421Z,2.45
2022-08-12T12:54:05.262Z,2.13
2022-08-12T12:58:46.003Z,3.00
2022-08-12T13:03:50.644Z,2.42
2022-08-12T13:08:55.329Z,3.47
2022-08-12T13:14:09.481Z,2.90
2022-08-12T13:19:16.988Z,2.25
2022-08-12T13:24:31.676Z,2.10
2022-08-12T13:29:37.049Z,2.55
2022-08-12T13:34:40.054Z,2.70
2022-08-12T13:39:46.326Z,2.95
2022-08-12T13:44:53.867Z,2.80
2022-08-12T13:49:59.840Z,2.85
2022-08-12T13:55:06.243Z,2.92
2022-08-12T14:00:11.196Z,2.80
2022-08-12T14:05:37.795Z,2.67
2022-08-12T14:10:50.558Z,2.90
2022-08-12T14:16:04.652Z,2.47
2022-08-12T14:21:18.155Z,2.20
2022-08-12T14:26:29.713Z,2.95
2022-08-12T14:31:33.814Z,2.70
2022-08-12T14:36:37.962Z,2.83
2022-08-12T14:41:48.447Z,3.65
2022-08-12T14:47:01.233Z,3.03
2022-08-12T14:53:15.380Z,3.53
2022-08-12T14:57:57.410Z,3.08
2022-08-12T15:03:04.075Z,3.88
2022-08-12T15:08:12.996Z,4.30
2022-08-12T15:13:19.315Z,4.60
2022-08-12T15:18:25.994Z,4.05
2022-08-12T15:23:33.193Z,4.32
2022-08-12T15:28:55.982Z,4.55
2022-08-12T15:33:59.273Z,4.45
2022-08-12T15:39:02.661Z,4.53
2022-08-12T15:44:17.128Z,4.28
2022-08-12T15:49:34.370Z,4.18
2022-08-12T15:54:46.660Z,4.10
2022-08-12T16:00:03.842Z,4.18
2022-08-12T16:06:11.604Z,4.43
2022-08-12T16:10:35.012Z,4.65
2022-08-12T16:15:42.308Z,4.88
2022-08-12T16:20:54.453Z,4.60
2022-08-12T16:26:05.161Z,4.57
2022-08-12T16:31:13.380Z,5.18
2022-08-12T16:36:19.172Z,4.75
2022-08-12T16:41:23.412Z,5.13
2022-08-12T16:46:31.934Z,5.05
2022-08-12T16:51:40.843Z,5.35
2022-08-12T16:56:54.654Z,5.72
2022-08-12T17:02:02.892Z,5.50
2022-08-12T17:07:13.056Z,5.10
2022-08-12T17:12:21.840Z,6.50
2022-08-12T17:17:39.425Z,5.60
2022-08-12T17:22:43.590Z,5.40
2022-08-12T17:27:56.947Z,6.20
2022-08-12T17:33:06.759Z,5.07
2022-08-12T17:38:14.489Z,6.10
2022-08-12T17:43:57.526Z,6.28
2022-08-12T17:48:54.914Z,5.85
2022-08-12T17:54:10.877Z,5.47
2022-08-12T17:59:47.228Z,6.07
2022-08-12T18:05:03.171Z,5.50
2022-08-12T18:10:08.674Z,6.80
2022-08-12T18:15:26.995Z,7.85
2022-08-12T18:20:45.225Z,7.93
2022-08-12T18:26:14.837Z,8.02
2022-08-12T18:31:44.148Z,7.45
2022-08-12T18:36:55.781Z,8.07
2022-08-12T18:42:00.227Z,8.63
2022-08-12T18:47:05.407Z,9.88
2022-08-12T18:52:12.520Z,17.25
2022-08-12T18:57:45.672Z,12.68
2022-08-12T19:02:41.160Z,15.25
2022-08-12T19:08:00.906Z,12.43
2022-08-12T19:13:35.285Z,8.35
2022-08-12T19:24:49.927Z,6.47
2022-08-12T19:30:07.021Z,4.80
2022-08-12T19:46:52.700Z,3.53
2022-08-12T19:51:56.645Z,2.90
2022-08-12T19:57:02.246Z,3.90
2022-08-12T20:02:15.313Z,3.13
2022-08-12T20:07:23.367Z,3.20
2022-08-12T20:12:59.311Z,2.60
2022-08-12T20:18:00.926Z,2.70
2022-08-12T20:30:09.655Z,3.45
2022-08-12T20:35:18.328Z,2.63
2022-08-12T20:40:28.456Z,2.97
2022-08-12T20:45:44.927Z,2.65
2022-08-12T20:50:56.225Z,3.10
2022-08-12T20:56:30.819Z,3.22
2022-08-12T21:01:47.522Z,2.58
2022-08-12T21:06:57.686Z,2.70
2022-08-12T21:12:27.927Z,3.70
2022-08-12T21:18:00.567Z,2.92
2022-08-12T21:23:10.987Z,2.83
2022-08-12T21:28:30.862Z,3.25
2022-08-12T21:33:58.689Z,3.08
2022-08-12T21:39:18.015Z,2.97
2022-08-12T21:45:44.128Z,3.15
2022-08-12T21:49:53.662Z,3.10
2022-08-12T21:55:00.449Z,3.58
2022-08-12T22:00:04.472Z,3.42
2022-08-12T22:05:38.798Z,3.10
2022-08-12T22:10:47.445Z,3.35
2022-08-12T22:15:55.832Z,2.67
2022-08-12T22:20:59.225Z,3.10
2022-08-12T22:26:07.328Z,3.38
2022-08-12T22:31:10.796Z,3.42
2022-08-12T22:36:21.352Z,3.90
2022-08-12T22:41:48.045Z,3.67
2022-08-12T22:47:51.133Z,4.38
2022-08-12T22:52:42.368Z,4.07
2022-08-12T22:57:48.936Z,3.55
2022-08-12T23:03:03.041Z,4.60
2022-08-12T23:08:07.006Z,4.95
2022-08-12T23:13:55.419Z,4.20
2022-08-12T23:19:10.827Z,4.45
2022-08-12T23:24:23.627Z,4.18
2022-08-12T23:29:43.307Z,4.20
2022-08-12T23:34:53.293Z,4.38
2022-08-12T23:40:14.484Z,4.07
2022-08-12T23:45:30.576Z,5.07
2022-08-12T23:50:35.044Z,4.43
2022-08-12T23:55:40.793Z,4.82
